sensor_id;sensor_type;location;lat;lon;timestamp;temperature;humidity
1337;DHT22;662;48.814;9.318;2022-10-31T00:02:05;14.60;72.50
1337;DHT22;662;48.814;9.318;2022-10-31T00:04:31;14.60;72.60
1337;DHT22;662;48.814;9.318;2022-10-31T00:06:57;14.60;72.60
1337;DHT22;662;48.814;9.318;2022-10-31T00:09:25;14.60;72.70
1337;DHT22;662;48.814;9.318;2022-10-31T00:11:51;14.50;72.70
1337;DHT22;662;48.814;9.318;2022-10-31T00:14:16;14.50;72.70
1337;DHT22;662;48.814;9.318;2022-10-31T00:16:42;14.50;72.70
1337;DHT22;662;48.814;9.318;2022-10-31T00:19:08;14.50;72.70
1337;DHT22;662;48.814;9.318;2022-10-31T00:21:34;14.50;72.70
1337;DHT22;662;48.814;9.318;2022-10-31T00:24:01;14.50;72.70
1337;DHT22;662;48.814;9.318;2022-10-31T00:26:31;14.50;72.70
1337;DHT22;662;48.814;9.318;2022-10-31T00:28:57;14.50;72.70
1337;DHT22;662;48.814;9.318;2022-10-31T00:31:23;14.50;72.60
1337;DHT22;662;48.814;9.318;2022-10-31T00:33:49;14.50;72.60
1337;DHT22;662;48.814;9.318;2022-10-31T00:36:17;14.40;72.50
1337;DHT22;662;48.814;9.318;2022-10-31T00:38:43;14.40;72.50
1337;DHT22;662;48.814;9.318;2022-10-31T00:41:13;14.40;72.50
1337;DHT22;662;48.814;9.318;2022-10-31T00:43:39;14.40;72.50
1337;DHT22;662;48.814;9.318;2022-10-31T00:46:04;14.40;72.50
1337;DHT22;662;48.814;9.318;2022-10-31T00:48:30;14.40;72.50
1337;DHT22;662;48.814;9.318;2022-10-31T00:50:56;14.40;72.60
1337;DHT22;662;48.814;9.318;2022-10-31T00:53:22;14.40;72.50
1337;DHT22;662;48.814;9.318;2022-10-31T00:55:48;14.30;72.40
1337;DHT22;662;48.814;9.318;2022-10-31T00:58:13;14.30;72.40
1337;DHT22;662;48.814;9.318;2022-10-31T01:00:39;14.30;72.40
1337;DHT22;662;48.814;9.318;2022-10-31T01:03:05;14.30;72.50
1337;DHT22;662;48.814;9.318;2022-10-31T01:05:31;14.30;72.50
1337;DHT22;662;48.814;9.318;2022-10-31T01:07:57;14.30;72.50
1337;DHT22;662;48.814;9.318;2022-10-31T01:10:23;14.20;72.50
1337;DHT22;662;48.814;9.318;2022-10-31T01:12:49;14.20;72.50
1337;DHT22;662;48.814;9.318;2022-10-31T01:15:20;14.20;72.60
1337;DHT22;662;48.814;9.318;2022-10-31T01:17:48;14.10;72.40
1337;DHT22;662;48.814;9.318;2022-10-31T01:20:15;14.10;72.40
1337;DHT22;662;48.814;9.318;2022-10-31T01:22:41;14.10;72.40
1337;DHT22;662;48.814;9.318;2022-10-31T01:25:08;14.10;72.40
1337;DHT22;662;48.814;9.318;2022-10-31T01:27:34;14.10;72.30
1337;DHT22;662;48.814;9.318;2022-10-31T01:30:00;14.10;72.40
1337;DHT22;662;48.814;9.318;2022-10-31T01:32:27;14.00;72.30
1337;DHT22;662;48.814;9.318;2022-10-31T01:34:54;14.00;73.00
1337;DHT22;662;48.814;9.318;2022-10-31T01:37:20;14.00;72.30
1337;DHT22;662;48.814;9.318;2022-10-31T01:39:48;14.00;72.30
1337;DHT22;662;48.814;9.318;2022-10-31T01:42:18;14.00;72.40
1337;DHT22;662;48.814;9.318;2022-10-31T01:44:53;14.00;72.50
1337;DHT22;662;48.814;9.318;2022-10-31T01:47:27;14.00;72.50
1337;DHT22;662;48.814;9.318;2022-10-31T01:49:58;13.90;72.40
1337;DHT22;662;48.814;9.318;2022-10-31T01:52:37;13.90;72.40
1337;DHT22;662;48.814;9.318;2022-10-31T01:55:09;13.90;72.50
1337;DHT22;662;48.814;9.318;2022-10-31T01:57:38;13.90;72.50
1337;DHT22;662;48.814;9.318;2022-10-31T02:00:08;13.90;72.50
1337;DHT22;662;48.814;9.318;2022-10-31T02:02:34;13.90;72.50
1337;DHT22;662;48.814;9.318;2022-10-31T02:05:02;13.90;72.50
1337;DHT22;662;48.814;9.318;2022-10-31T02:07:48;13.80;72.30
1337;DHT22;662;48.814;9.318;2022-10-31T02:10:18;13.80;72.40
1337;DHT22;662;48.814;9.318;2022-10-31T02:12:44;13.80;72.40
1337;DHT22;662;48.814;9.318;2022-10-31T02:15:11;13.80;72.60
1337;DHT22;662;48.814;9.318;2022-10-31T02:17:36;13.70;72.50
1337;DHT22;662;48.814;9.318;2022-10-31T02:22:54;13.70;72.60
1337;DHT22;662;48.814;9.318;2022-10-31T02:25:46;13.70;72.80
1337;DHT22;662;48.814;9.318;2022-10-31T02:33:52;13.60;72.70
1337;DHT22;662;48.814;9.318;2022-10-31T02:39:22;13.60;72.70
1337;DHT22;662;48.814;9.318;2022-10-31T02:41:50;13.50;72.60
1337;DHT22;662;48.814;9.318;2022-10-31T02:47:13;13.50;72.70
1337;DHT22;662;48.814;9.318;2022-10-31T02:49:58;13.50;72.70
1337;DHT22;662;48.814;9.318;2022-10-31T02:54:51;13.50;72.70
1337;DHT22;662;48.814;9.318;2022-10-31T02:57:28;13.50;72.60
1337;DHT22;662;48.814;9.318;2022-10-31T03:00:02;13.50;72.50
1337;DHT22;662;48.814;9.318;2022-10-31T03:10:56;13.40;73.00
1337;DHT22;662;48.814;9.318;2022-10-31T03:16:29;13.40;73.00
1337;DHT22;662;48.814;9.318;2022-10-31T03:19:14;13.30;72.90
1337;DHT22;662;48.814;9.318;2022-10-31T03:22:01;13.30;72.90
1337;DHT22;662;48.814;9.318;2022-10-31T03:24:34;13.30;72.90
1337;DHT22;662;48.814;9.318;2022-10-31T03:27:01;13.30;72.90
1337;DHT22;662;48.814;9.318;2022-10-31T03:29:32;13.20;72.80
1337;DHT22;662;48.814;9.318;2022-10-31T03:32:18;13.20;72.70
1337;DHT22;662;48.814;9.318;2022-10-31T03:34:45;13.20;72.70
1337;DHT22;662;48.814;9.318;2022-10-31T03:37:14;13.20;72.70
1337;DHT22;662;48.814;9.318;2022-10-31T03:39:41;13.20;72.70
1337;DHT22;662;48.814;9.318;2022-10-31T03:42:15;13.20;72.70
1337;DHT22;662;48.814;9.318;2022-10-31T03:44:44;13.20;72.70
1337;DHT22;662;48.814;9.318;2022-10-31T03:47:11;13.10;72.50
1337;DHT22;662;48.814;9.318;2022-10-31T03:49:37;13.10;72.60
1337;DHT22;662;48.814;9.318;2022-10-31T03:54:42;13.10;72.70
1337;DHT22;662;48.814;9.318;2022-10-31T03:57:17;13.10;72.90
1337;DHT22;662;48.814;9.318;2022-10-31T03:59:51;13.10;73.50
1337;DHT22;662;48.814;9.318;2022-10-31T04:02:21;13.10;72.90
1337;DHT22;662;48.814;9.318;2022-10-31T04:04:49;13.10;72.90
1337;DHT22;662;48.814;9.318;2022-10-31T04:07:16;13.10;73.00
1337;DHT22;662;48.814;9.318;2022-10-31T04:09:44;13.00;72.90
1337;DHT22;662;48.814;9.318;2022-10-31T04:12:13;13.10;73.10
1337;DHT22;662;48.814;9.318;2022-10-31T04:14:41;13.00;72.90
1337;DHT22;662;48.814;9.318;2022-10-31T04:17:12;13.00;73.00
1337;DHT22;662;48.814;9.318;2022-10-31T04:19:39;13.00;73.10
1337;DHT22;662;48.814;9.318;2022-10-31T04:22:05;13.00;73.10
1337;DHT22;662;48.814;9.318;2022-10-31T04:24:31;13.00;73.10
1337;DHT22;662;48.814;9.318;2022-10-31T04:26:56;12.90;73.10
1337;DHT22;662;48.814;9.318;2022-10-31T04:29:22;12.90;73.20
1337;DHT22;662;48.814;9.318;2022-10-31T04:31:48;12.90;73.20
1337;DHT22;662;48.814;9.318;2022-10-31T04:34:13;12.80;73.10
1337;DHT22;662;48.814;9.318;2022-10-31T04:36:39;12.80;73.20
1337;DHT22;662;48.814;9.318;2022-10-31T04:39:05;12.80;73.20
1337;DHT22;662;48.814;9.318;2022-10-31T04:41:30;12.80;73.20
1337;DHT22;662;48.814;9.318;2022-10-31T04:43:56;12.80;73.10
1337;DHT22;662;48.814;9.318;2022-10-31T04:46:21;12.80;73.10
1337;DHT22;662;48.814;9.318;2022-10-31T04:48:47;12.80;73.00
1337;DHT22;662;48.814;9.318;2022-10-31T04:51:13;12.80;73.00
1337;DHT22;662;48.814;9.318;2022-10-31T04:53:38;12.80;73.00
1337;DHT22;662;48.814;9.318;2022-10-31T04:56:04;12.80;73.00
1337;DHT22;662;48.814;9.318;2022-10-31T04:58:30;12.70;72.90
1337;DHT22;662;48.814;9.318;2022-10-31T05:00:56;12.70;73.00
1337;DHT22;662;48.814;9.318;2022-10-31T05:03:22;12.70;72.90
1337;DHT22;662;48.814;9.318;2022-10-31T05:05:48;12.70;72.90
1337;DHT22;662;48.814;9.318;2022-10-31T05:08:14;12.70;72.80
1337;DHT22;662;48.814;9.318;2022-10-31T05:10:40;12.70;72.70
1337;DHT22;662;48.814;9.318;2022-10-31T05:13:06;12.70;72.60
1337;DHT22;662;48.814;9.318;2022-10-31T05:15:31;12.70;72.60
1337;DHT22;662;48.814;9.318;2022-10-31T05:17:58;12.70;72.60
1337;DHT22;662;48.814;9.318;2022-10-31T05:20:26;12.70;72.50
1337;DHT22;662;48.814;9.318;2022-10-31T05:22:54;12.70;73.20
1337;DHT22;662;48.814;9.318;2022-10-31T05:25:21;12.60;72.40
1337;DHT22;662;48.814;9.318;2022-10-31T05:27:49;12.60;72.40
1337;DHT22;662;48.814;9.318;2022-10-31T05:30:25;12.60;72.50
1337;DHT22;662;48.814;9.318;2022-10-31T05:32:51;12.60;72.50
1337;DHT22;662;48.814;9.318;2022-10-31T05:35:23;12.60;72.40
1337;DHT22;662;48.814;9.318;2022-10-31T05:37:49;12.60;72.50
1337;DHT22;662;48.814;9.318;2022-10-31T05:40:16;12.60;72.50
1337;DHT22;662;48.814;9.318;2022-10-31T05:42:43;12.60;72.60
1337;DHT22;662;48.814;9.318;2022-10-31T05:45:10;12.50;72.60
1337;DHT22;662;48.814;9.318;2022-10-31T05:47:36;12.50;72.60
1337;DHT22;662;48.814;9.318;2022-10-31T05:50:03;12.50;72.60
1337;DHT22;662;48.814;9.318;2022-10-31T05:52:28;12.60;72.80
1337;DHT22;662;48.814;9.318;2022-10-31T05:54:54;12.50;72.70
1337;DHT22;662;48.814;9.318;2022-10-31T05:57:20;12.50;72.70
1337;DHT22;662;48.814;9.318;2022-10-31T05:59:45;12.50;72.70
1337;DHT22;662;48.814;9.318;2022-10-31T06:02:11;12.50;72.70
1337;DHT22;662;48.814;9.318;2022-10-31T06:04:36;12.50;72.70
1337;DHT22;662;48.814;9.318;2022-10-31T06:07:02;12.40;72.60
1337;DHT22;662;48.814;9.318;2022-10-31T06:09:28;12.40;72.60
1337;DHT22;662;48.814;9.318;2022-10-31T06:11:53;12.40;72.50
1337;DHT22;662;48.814;9.318;2022-10-31T06:14:19;12.40;72.50
1337;DHT22;662;48.814;9.318;2022-10-31T06:16:45;12.30;72.40
1337;DHT22;662;48.814;9.318;2022-10-31T06:19:10;12.30;72.40
1337;DHT22;662;48.814;9.318;2022-10-31T06:21:36;12.30;72.40
1337;DHT22;662;48.814;9.318;2022-10-31T06:24:02;12.30;72.40
1337;DHT22;662;48.814;9.318;2022-10-31T06:26:27;12.30;72.50
1337;DHT22;662;48.814;9.318;2022-10-31T06:28:53;12.30;72.80
1337;DHT22;662;48.814;9.318;2022-10-31T06:31:18;12.30;72.80
1337;DHT22;662;48.814;9.318;2022-10-31T06:33:44;12.30;72.90
1337;DHT22;662;48.814;9.318;2022-10-31T06:36:10;12.30;73.00
1337;DHT22;662;48.814;9.318;2022-10-31T06:38:36;12.30;73.00
1337;DHT22;662;48.814;9.318;2022-10-31T06:41:03;12.40;73.10
1337;DHT22;662;48.814;9.318;2022-10-31T06:43:29;12.40;73.10
1337;DHT22;662;48.814;9.318;2022-10-31T06:45:55;12.40;73.00
1337;DHT22;662;48.814;9.318;2022-10-31T06:48:21;12.40;73.20
1337;DHT22;662;48.814;9.318;2022-10-31T06:50:47;12.40;73.10
1337;DHT22;662;48.814;9.318;2022-10-31T06:53:13;12.50;73.20
1337;DHT22;662;48.814;9.318;2022-10-31T06:55:42;12.50;73.10
1337;DHT22;662;48.814;9.318;2022-10-31T06:58:09;12.50;73.10
1337;DHT22;662;48.814;9.318;2022-10-31T07:00:35;12.60;73.20
1337;DHT22;662;48.814;9.318;2022-10-31T07:03:08;12.60;73.10
1337;DHT22;662;48.814;9.318;2022-10-31T07:05:34;12.70;73.20
1337;DHT22;662;48.814;9.318;2022-10-31T07:08:02;12.70;73.20
1337;DHT22;662;48.814;9.318;2022-10-31T07:10:31;12.70;73.10
1337;DHT22;662;48.814;9.318;2022-10-31T07:12:58;12.70;73.20
1337;DHT22;662;48.814;9.318;2022-10-31T07:15:25;12.70;73.10
1337;DHT22;662;48.814;9.318;2022-10-31T07:17:52;12.80;73.10
1337;DHT22;662;48.814;9.318;2022-10-31T07:20:18;12.80;73.00
1337;DHT22;662;48.814;9.318;2022-10-31T07:22:44;12.80;72.90
1337;DHT22;662;48.814;9.318;2022-10-31T07:25:10;12.90;73.00
1337;DHT22;662;48.814;9.318;2022-10-31T07:27:41;12.90;72.90
1337;DHT22;662;48.814;9.318;2022-10-31T07:30:09;12.90;72.80
1337;DHT22;662;48.814;9.318;2022-10-31T07:32:45;13.00;72.90
1337;DHT22;662;48.814;9.318;2022-10-31T07:35:17;13.00;72.90
1337;DHT22;662;48.814;9.318;2022-10-31T07:37:43;13.10;72.90
1337;DHT22;662;48.814;9.318;2022-10-31T07:40:09;13.10;72.90
1337;DHT22;662;48.814;9.318;2022-10-31T07:42:39;13.10;73.00
1337;DHT22;662;48.814;9.318;2022-10-31T07:45:07;13.20;73.10
1337;DHT22;662;48.814;9.318;2022-10-31T07:47:39;13.20;73.00
1337;DHT22;662;48.814;9.318;2022-10-31T07:50:06;13.20;73.10
1337;DHT22;662;48.814;9.318;2022-10-31T07:52:34;13.30;73.20
1337;DHT22;662;48.814;9.318;2022-10-31T07:55:00;13.30;73.20
1337;DHT22;662;48.814;9.318;2022-10-31T07:57:26;13.40;73.20
1337;DHT22;662;48.814;9.318;2022-10-31T07:59:52;13.40;73.10
1337;DHT22;662;48.814;9.318;2022-10-31T08:02:17;13.50;73.20
1337;DHT22;662;48.814;9.318;2022-10-31T08:04:43;13.60;73.10
1337;DHT22;662;48.814;9.318;2022-10-31T08:07:09;13.70;73.10
1337;DHT22;662;48.814;9.318;2022-10-31T08:09:34;13.80;73.00
1337;DHT22;662;48.814;9.318;2022-10-31T08:12:00;13.90;72.90
1337;DHT22;662;48.814;9.318;2022-10-31T08:14:27;14.00;72.70
1337;DHT22;662;48.814;9.318;2022-10-31T08:16:53;14.10;72.60
1337;DHT22;662;48.814;9.318;2022-10-31T08:19:19;14.10;72.40
1337;DHT22;662;48.814;9.318;2022-10-31T08:21:45;14.20;72.30
1337;DHT22;662;48.814;9.318;2022-10-31T08:24:10;14.30;72.10
1337;DHT22;662;48.814;9.318;2022-10-31T08:26:36;14.30;72.00
1337;DHT22;662;48.814;9.318;2022-10-31T08:29:05;14.40;72.00
1337;DHT22;662;48.814;9.318;2022-10-31T08:31:31;14.40;71.80
1337;DHT22;662;48.814;9.318;2022-10-31T08:33:57;14.50;71.80
1337;DHT22;662;48.814;9.318;2022-10-31T08:36:22;14.50;71.80
1337;DHT22;662;48.814;9.318;2022-10-31T08:38:48;14.50;71.70
1337;DHT22;662;48.814;9.318;2022-10-31T08:44:36;14.60;71.80
1337;DHT22;662;48.814;9.318;2022-10-31T08:47:02;14.70;71.90
1337;DHT22;662;48.814;9.318;2022-10-31T08:49:27;14.70;72.00
1337;DHT22;662;48.814;9.318;2022-10-31T08:51:53;14.70;72.00
1337;DHT22;662;48.814;9.318;2022-10-31T08:54:18;14.80;71.90
1337;DHT22;662;48.814;9.318;2022-10-31T08:56:44;14.90;72.50
1337;DHT22;662;48.814;9.318;2022-10-31T08:59:09;14.90;72.40
1337;DHT22;662;48.814;9.318;2022-10-31T09:01:35;15.00;71.70
1337;DHT22;662;48.814;9.318;2022-10-31T09:04:01;15.10;71.70
1337;DHT22;662;48.814;9.318;2022-10-31T09:06:26;15.10;71.50
1337;DHT22;662;48.814;9.318;2022-10-31T09:08:52;15.20;71.40
1337;DHT22;662;48.814;9.318;2022-10-31T09:11:17;15.30;71.30
1337;DHT22;662;48.814;9.318;2022-10-31T09:13:43;15.40;71.30
1337;DHT22;662;48.814;9.318;2022-10-31T09:16:08;15.50;71.30
1337;DHT22;662;48.814;9.318;2022-10-31T09:18:34;15.60;71.30
1337;DHT22;662;48.814;9.318;2022-10-31T09:21:00;15.70;71.20
1337;DHT22;662;48.814;9.318;2022-10-31T09:23:26;15.80;71.00
1337;DHT22;662;48.814;9.318;2022-10-31T09:25:53;15.80;70.70
1337;DHT22;662;48.814;9.318;2022-10-31T09:28:21;15.90;70.70
1337;DHT22;662;48.814;9.318;2022-10-31T09:30:49;16.00;70.50
1337;DHT22;662;48.814;9.318;2022-10-31T09:33:15;16.00;70.30
1337;DHT22;662;48.814;9.318;2022-10-31T09:35:42;16.10;70.30
1337;DHT22;662;48.814;9.318;2022-10-31T09:38:14;16.20;70.70
1337;DHT22;662;48.814;9.318;2022-10-31T09:40:43;16.20;70.20
1337;DHT22;662;48.814;9.318;2022-10-31T09:46:21;16.30;70.00
1337;DHT22;662;48.814;9.318;2022-10-31T09:52:05;16.40;69.60
1337;DHT22;662;48.814;9.318;2022-10-31T09:54:38;16.50;69.50
1337;DHT22;662;48.814;9.318;2022-10-31T09:57:05;16.50;69.40
1337;DHT22;662;48.814;9.318;2022-10-31T09:59:39;16.60;69.30
1337;DHT22;662;48.814;9.318;2022-10-31T10:02:30;16.70;69.30
1337;DHT22;662;48.814;9.318;2022-10-31T10:04:59;16.80;69.20
1337;DHT22;662;48.814;9.318;2022-10-31T10:07:46;16.90;69.20
1337;DHT22;662;48.814;9.318;2022-10-31T10:19:22;17.20;69.30
1337;DHT22;662;48.814;9.318;2022-10-31T10:30:16;17.70;68.20
1337;DHT22;662;48.814;9.318;2022-10-31T10:32:54;17.80;68.00
1337;DHT22;662;48.814;9.318;2022-10-31T10:37:49;18.00;67.50
1337;DHT22;662;48.814;9.318;2022-10-31T10:40:27;18.10;67.10
1337;DHT22;662;48.814;9.318;2022-10-31T10:51:47;18.50;66.20
1337;DHT22;662;48.814;9.318;2022-10-31T11:02:43;18.60;64.40
1337;DHT22;662;48.814;9.318;2022-10-31T11:05:19;18.60;64.00
1337;DHT22;662;48.814;9.318;2022-10-31T11:07:46;18.60;64.00
1337;DHT22;662;48.814;9.318;2022-10-31T11:10:13;18.70;64.20
1337;DHT22;662;48.814;9.318;2022-10-31T11:12:40;18.70;64.20
1337;DHT22;662;48.814;9.318;2022-10-31T11:15:18;18.80;63.90
1337;DHT22;662;48.814;9.318;2022-10-31T11:17:49;18.80;63.30
1337;DHT22;662;48.814;9.318;2022-10-31T11:22:42;18.80;62.90
1337;DHT22;662;48.814;9.318;2022-10-31T11:25:24;18.90;63.20
1337;DHT22;662;48.814;9.318;2022-10-31T11:28:09;18.90;63.10
1337;DHT22;662;48.814;9.318;2022-10-31T11:30:54;19.00;63.30
1337;DHT22;662;48.814;9.318;2022-10-31T11:35:56;19.10;62.10
1337;DHT22;662;48.814;9.318;2022-10-31T11:38:24;19.20;62.00
1337;DHT22;662;48.814;9.318;2022-10-31T11:43:33;19.40;61.70
1337;DHT22;662;48.814;9.318;2022-10-31T11:45:58;19.50;61.80
1337;DHT22;662;48.814;9.318;2022-10-31T11:48:25;19.60;61.70
1337;DHT22;662;48.814;9.318;2022-10-31T11:51:00;19.60;61.30
1337;DHT22;662;48.814;9.318;2022-10-31T11:53:32;19.80;61.30
1337;DHT22;662;48.814;9.318;2022-10-31T11:56:14;19.80;60.80
1337;DHT22;662;48.814;9.318;2022-10-31T11:58:40;19.90;60.80
1337;DHT22;662;48.814;9.318;2022-10-31T12:01:26;19.90;60.70
1337;DHT22;662;48.814;9.318;2022-10-31T12:04:08;20.00;60.70
1337;DHT22;662;48.814;9.318;2022-10-31T12:06:35;20.10;60.60
1337;DHT22;662;48.814;9.318;2022-10-31T12:09:02;20.10;60.40
1337;DHT22;662;48.814;9.318;2022-10-31T12:11:54;20.10;59.60
1337;DHT22;662;48.814;9.318;2022-10-31T12:17:00;20.10;58.90
1337;DHT22;662;48.814;9.318;2022-10-31T12:25:25;20.20;59.20
1337;DHT22;662;48.814;9.318;2022-10-31T12:36:49;20.50;59.20
1337;DHT22;662;48.814;9.318;2022-10-31T12:39:51;20.60;59.20
1337;DHT22;662;48.814;9.318;2022-10-31T12:45:59;20.70;58.90
1337;DHT22;662;48.814;9.318;2022-10-31T12:59:50;20.60;59.30
1337;DHT22;662;48.814;9.318;2022-10-31T13:05:02;20.50;59.50
1337;DHT22;662;48.814;9.318;2022-10-31T13:07:41;20.40;59.30
1337;DHT22;662;48.814;9.318;2022-10-31T13:12:54;20.30;59.50
1337;DHT22;662;48.814;9.318;2022-10-31T13:15:28;20.20;59.60
1337;DHT22;662;48.814;9.318;2022-10-31T13:18:04;20.20;59.70
1337;DHT22;662;48.814;9.318;2022-10-31T13:20:38;20.20;59.70
1337;DHT22;662;48.814;9.318;2022-10-31T13:25:41;20.10;60.10
1337;DHT22;662;48.814;9.318;2022-10-31T13:28:28;20.00;60.00
1337;DHT22;662;48.814;9.318;2022-10-31T13:30:55;20.00;59.80
1337;DHT22;662;48.814;9.318;2022-10-31T13:33:36;20.00;59.90
1337;DHT22;662;48.814;9.318;2022-10-31T13:44:15;19.90;60.70
1337;DHT22;662;48.814;9.318;2022-10-31T13:46:44;19.90;60.80
1337;DHT22;662;48.814;9.318;2022-10-31T13:54:38;20.40;60.90
1337;DHT22;662;48.814;9.318;2022-10-31T13:57:16;20.90;60.80
1337;DHT22;662;48.814;9.318;2022-10-31T13:59:54;21.30;59.70
1337;DHT22;662;48.814;9.318;2022-10-31T14:02:33;21.40;58.80
1337;DHT22;662;48.814;9.318;2022-10-31T14:05:06;21.50;58.50
1337;DHT22;662;48.814;9.318;2022-10-31T14:07:45;21.60;58.40
1337;DHT22;662;48.814;9.318;2022-10-31T14:12:50;22.00;58.10
1337;DHT22;662;48.814;9.318;2022-10-31T14:17:51;22.30;57.60
1337;DHT22;662;48.814;9.318;2022-10-31T14:22:43;22.00;57.10
1337;DHT22;662;48.814;9.318;2022-10-31T14:25:35;21.90;57.10
1337;DHT22;662;48.814;9.318;2022-10-31T14:28:32;21.90;57.50
1337;DHT22;662;48.814;9.318;2022-10-31T14:30:59;21.80;57.60
1337;DHT22;662;48.814;9.318;2022-10-31T14:33:30;21.80;57.70
1337;DHT22;662;48.814;9.318;2022-10-31T14:36:17;21.80;57.90
1337;DHT22;662;48.814;9.318;2022-10-31T14:41:27;21.80;58.10
1337;DHT22;662;48.814;9.318;2022-10-31T14:47:15;21.60;58.50
1337;DHT22;662;48.814;9.318;2022-10-31T14:52:13;21.30;59.00
1337;DHT22;662;48.814;9.318;2022-10-31T14:54:42;21.10;59.30
1337;DHT22;662;48.814;9.318;2022-10-31T14:57:24;21.00;59.50
1337;DHT22;662;48.814;9.318;2022-10-31T14:59:54;20.80;59.70
1337;DHT22;662;48.814;9.318;2022-10-31T15:02:26;20.60;59.90
1337;DHT22;662;48.814;9.318;2022-10-31T15:04:55;20.50;60.30
1337;DHT22;662;48.814;9.318;2022-10-31T15:07:23;20.40;60.70
1337;DHT22;662;48.814;9.318;2022-10-31T15:12:30;20.10;61.50
1337;DHT22;662;48.814;9.318;2022-10-31T15:14:56;20.00;61.90
1337;DHT22;662;48.814;9.318;2022-10-31T15:17:25;20.00;62.40
1337;DHT22;662;48.814;9.318;2022-10-31T15:19:57;19.90;62.60
1337;DHT22;662;48.814;9.318;2022-10-31T15:22:24;19.80;62.90
1337;DHT22;662;48.814;9.318;2022-10-31T15:24:51;19.80;63.40
1337;DHT22;662;48.814;9.318;2022-10-31T15:27:22;19.70;63.60
1337;DHT22;662;48.814;9.318;2022-10-31T15:29:53;19.60;63.90
1337;DHT22;662;48.814;9.318;2022-10-31T15:32:27;19.60;64.20
1337;DHT22;662;48.814;9.318;2022-10-31T15:34:54;19.50;65.10
1337;DHT22;662;48.814;9.318;2022-10-31T15:37:22;19.40;64.70
1337;DHT22;662;48.814;9.318;2022-10-31T15:39:50;19.40;65.10
1337;DHT22;662;48.814;9.318;2022-10-31T15:42:20;19.30;65.20
1337;DHT22;662;48.814;9.318;2022-10-31T15:44:51;19.20;65.30
1337;DHT22;662;48.814;9.318;2022-10-31T15:47:22;19.10;65.80
1337;DHT22;662;48.814;9.318;2022-10-31T15:49:54;19.00;65.90
1337;DHT22;662;48.814;9.318;2022-10-31T15:52:27;18.90;66.00
1337;DHT22;662;48.814;9.318;2022-10-31T15:55:18;18.90;66.30
1337;DHT22;662;48.814;9.318;2022-10-31T15:57:51;18.80;66.60
1337;DHT22;662;48.814;9.318;2022-10-31T16:00:28;18.70;66.70
1337;DHT22;662;48.814;9.318;2022-10-31T16:03:19;18.60;66.80
1337;DHT22;662;48.814;9.318;2022-10-31T16:05:52;18.50;66.90
1337;DHT22;662;48.814;9.318;2022-10-31T16:10:59;18.30;67.30
1337;DHT22;662;48.814;9.318;2022-10-31T16:13:37;18.20;67.50
1337;DHT22;662;48.814;9.318;2022-10-31T16:16:13;18.20;67.80
1337;DHT22;662;48.814;9.318;2022-10-31T16:18:40;18.10;67.90
1337;DHT22;662;48.814;9.318;2022-10-31T16:21:06;18.00;68.20
1337;DHT22;662;48.814;9.318;2022-10-31T16:23:33;17.90;68.30
1337;DHT22;662;48.814;9.318;2022-10-31T16:25:59;17.90;69.30
1337;DHT22;662;48.814;9.318;2022-10-31T16:28:26;17.80;68.70
1337;DHT22;662;48.814;9.318;2022-10-31T16:30:54;17.80;69.00
1337;DHT22;662;48.814;9.318;2022-10-31T16:33:44;17.70;69.10
1337;DHT22;662;48.814;9.318;2022-10-31T16:36:32;17.70;69.40
1337;DHT22;662;48.814;9.318;2022-10-31T16:38:58;17.60;69.50
1337;DHT22;662;48.814;9.318;2022-10-31T16:41:24;17.50;69.70
1337;DHT22;662;48.814;9.318;2022-10-31T16:43:51;17.50;70.00
1337;DHT22;662;48.814;9.318;2022-10-31T16:46:26;17.40;70.20
1337;DHT22;662;48.814;9.318;2022-10-31T16:48:53;17.40;70.40
1337;DHT22;662;48.814;9.318;2022-10-31T16:51:19;17.30;70.70
1337;DHT22;662;48.814;9.318;2022-10-31T16:53:45;17.20;70.70
1337;DHT22;662;48.814;9.318;2022-10-31T16:56:20;17.20;71.00
1337;DHT22;662;48.814;9.318;2022-10-31T16:58:47;17.20;71.30
1337;DHT22;662;48.814;9.318;2022-10-31T17:01:13;17.10;71.30
1337;DHT22;662;48.814;9.318;2022-10-31T17:03:39;17.00;71.40
1337;DHT22;662;48.814;9.318;2022-10-31T17:06:05;17.00;71.60
1337;DHT22;662;48.814;9.318;2022-10-31T17:08:30;17.00;71.60
1337;DHT22;662;48.814;9.318;2022-10-31T17:10:58;16.90;71.60
1337;DHT22;662;48.814;9.318;2022-10-31T17:13:29;16.80;71.60
1337;DHT22;662;48.814;9.318;2022-10-31T17:15:58;16.80;71.70
1337;DHT22;662;48.814;9.318;2022-10-31T17:18:24;16.80;71.90
1337;DHT22;662;48.814;9.318;2022-10-31T17:20:50;16.70;72.00
1337;DHT22;662;48.814;9.318;2022-10-31T17:23:20;16.70;72.10
1337;DHT22;662;48.814;9.318;2022-10-31T17:25:45;16.70;72.20
1337;DHT22;662;48.814;9.318;2022-10-31T17:28:13;16.70;72.30
1337;DHT22;662;48.814;9.318;2022-10-31T17:30:40;16.60;72.20
1337;DHT22;662;48.814;9.318;2022-10-31T17:33:07;16.60;72.30
1337;DHT22;662;48.814;9.318;2022-10-31T17:35:35;16.60;72.20
1337;DHT22;662;48.814;9.318;2022-10-31T17:38:01;16.50;72.10
1337;DHT22;662;48.814;9.318;2022-10-31T17:40:26;16.50;72.20
1337;DHT22;662;48.814;9.318;2022-10-31T17:42:54;16.40;72.10
1337;DHT22;662;48.814;9.318;2022-10-31T17:45:21;16.30;71.90
1337;DHT22;662;48.814;9.318;2022-10-31T17:47:48;16.30;72.00
1337;DHT22;662;48.814;9.318;2022-10-31T17:50:19;16.30;72.10
1337;DHT22;662;48.814;9.318;2022-10-31T17:52:45;16.20;72.20
1337;DHT22;662;48.814;9.318;2022-10-31T17:55:12;16.20;72.30
1337;DHT22;662;48.814;9.318;2022-10-31T17:57:40;16.10;72.40
1337;DHT22;662;48.814;9.318;2022-10-31T18:00:10;16.10;73.30
1337;DHT22;662;48.814;9.318;2022-10-31T18:02:36;16.10;72.70
1337;DHT22;662;48.814;9.318;2022-10-31T18:05:03;16.00;72.70
1337;DHT22;662;48.814;9.318;2022-10-31T18:07:30;16.00;72.90
1337;DHT22;662;48.814;9.318;2022-10-31T18:09:56;15.90;73.00
1337;DHT22;662;48.814;9.318;2022-10-31T18:12:21;15.90;73.10
1337;DHT22;662;48.814;9.318;2022-10-31T18:14:47;15.90;73.20
1337;DHT22;662;48.814;9.318;2022-10-31T18:17:13;15.90;73.30
1337;DHT22;662;48.814;9.318;2022-10-31T18:19:39;15.80;73.10
1337;DHT22;662;48.814;9.318;2022-10-31T18:22:05;15.70;73.20
1337;DHT22;662;48.814;9.318;2022-10-31T18:24:30;15.80;73.40
1337;DHT22;662;48.814;9.318;2022-10-31T18:26:57;15.70;73.50
1337;DHT22;662;48.814;9.318;2022-10-31T18:29:22;15.70;73.60
1337;DHT22;662;48.814;9.318;2022-10-31T18:31:48;15.60;73.60
1337;DHT22;662;48.814;9.318;2022-10-31T18:34:16;15.60;73.80
1337;DHT22;662;48.814;9.318;2022-10-31T18:36:42;15.60;73.90
1337;DHT22;662;48.814;9.318;2022-10-31T18:39:08;15.60;73.90
1337;DHT22;662;48.814;9.318;2022-10-31T18:41:36;15.50;73.90
1337;DHT22;662;48.814;9.318;2022-10-31T18:44:03;15.50;74.00
1337;DHT22;662;48.814;9.318;2022-10-31T18:46:29;15.50;74.10
1337;DHT22;662;48.814;9.318;2022-10-31T18:48:55;15.50;74.20
1337;DHT22;662;48.814;9.318;2022-10-31T18:51:22;15.50;74.20
1337;DHT22;662;48.814;9.318;2022-10-31T18:53:52;15.40;74.10
1337;DHT22;662;48.814;9.318;2022-10-31T18:56:18;15.40;74.10
1337;DHT22;662;48.814;9.318;2022-10-31T18:58:44;15.40;74.30
1337;DHT22;662;48.814;9.318;2022-10-31T19:01:11;15.40;74.50
1337;DHT22;662;48.814;9.318;2022-10-31T19:03:37;15.30;74.50
1337;DHT22;662;48.814;9.318;2022-10-31T19:06:03;15.30;74.80
1337;DHT22;662;48.814;9.318;2022-10-31T19:08:29;15.30;74.90
1337;DHT22;662;48.814;9.318;2022-10-31T19:11:01;15.30;75.00